Terminal Aerodrome Forecast
Issued by NWS

Home | Current Version | Previous Version | Text Only | Print | Product List | Glossary On
Versions: 1 2 3 4 5 6 7 8 9 10 11 12 13
000
FTUS42 KRAH 222325
TAFINT
TAF
KINT 222325Z 2300/2324 VRB04KT P6SM SCT080 BKN200
     FM230900 08007KT P6SM -RA OVC080
     FM231300 08009KT 6SM -RA OVC025
     FM231500 08010KT 5SM -RA BR OVC015
     FM231600 08010KT 3SM -RA BR OVC010
     FM231800 09012KT 3SM RA BR OVC008=

USA.gov is the U.S. government's official web portal to all federal, state and local government web resources and services.